首页
METAR-TAF:

METAR-TAF

机场 :

Aupaluk, 魁北克, 加拿大

纬度: 59-17-48N, 经度: 069-35-59W, 海拔: 35米

当前天气观测

该预报发布于2小时和15分钟前的21:00 UTC
风速13节,风向西
温度 -17°C
湿度 65%
气压 1011 hPa
能見度: 24.1公里
散云层高于2400英尺
多云层高于5600英尺

METAR: CYLA 262100Z 28013KT 15SM SCT024 BKN056 M17/M22 A2985 RMK SC3SC4 SN CVR/MED PACK LAST STFD OBS/NEXT 271200UTC SLP113

时间: 19:15 (23:15 UTC)


TAF: 丢失

超过4000个机场的气象观测和天气预报(METAR&TAF报告)。

可查询的气象台以黄色和红色小点在地图上表示。

将鼠标移到小点上方,可查看气象台名称。

然后点击查看天气观测和预报。

如需切换地图:点击带黑十字的绿色按钮放大地图;点击带横线的绿色按钮缩小地图;或者点击绿色箭头查看邻近地区的地图。


METAR-TAF: